Create Custom Reports and Graphics: Custom Report

Latest Observations

Map

15 Minute Data

Lodi West

Latest Observations

15 Minute Data | America/Los_Angeles
as of 11/19/19 6:55 AM PST
Station Date Time Temp (°F) Dew Pt (°F) RH (%) Wind Dir (°) Wind Spd (mph) Wind Gust (mph) Latest Rain (In) Daily Rain (In) Daily Min Temp (°F) Daily Max Temp (°F)
Utter - Wilson 11/19/19 0645 48.4   9.6 46.5   8.3 93   4 SE | 139 1.5   0.3 2.7   0.5 0.00 0.00 47.4   8.9 55.2   7.2
Clarksburg (CLK) 11/19/19 0645 46.9   7.3 45.5   6.0 95   5 SSE | 150 1.5   1.3 2.8   1.8 0.00 0.00 46.5   8.2 54.5   4.7
Gorter - Wilson 11/19/19 0645 47.9   12.0 45.9   10.9 93   4 S | 189 1.3   1.0 3.2   2.1 0.00 0.00 46.3   10.8 52.5   1.4
Hood (HOD) 11/19/19 0645 47.6   11.4 46.5   10.9 96   2 S | 169 0.9   0.7 3.0   1.9 0.00 0.00 46.5   10.5 52.4   4.4
Courtland-C3 11/19/19 0645 48.7   9.2 46.5   7.9 92   5 SSE | 159 3.6   1.3 7.2   4.3 0.00 0.00 46.9   8.3 53.6   4.0
Pacific Fruit 11/19/19 0645 50.6   7.6 48.0   5.9 91   6 S | 171 3.2   2.8 4.9   3.1 0.00 0.00 47.7   7.1 56.7   6.0
Ryer Island South (RIS) 11/19/19 0645 58.4   21.4 53.4   17.4 83   13 SW | 235 5.1   5.0 11.1   10.1 0.00 0.00 45.6   10.5 58.9   15.6
Guard Rd (Lodi WSW) 11/19/19 0645 48.5   9.6 46.4   8.1 92   6 SSE | 150 2.4   0.9 5.3   2.3 0.00 0.00 46.8   9.3 52.2   2.3
Claussen 11/19/19 0645 53.9   14.7 50.8   12.7 89   6 WSW | 237 2.0   1.8 4.4   3.2 0.00 0.00 48.2   9.1 57.5   8.6
Max     58.4 53.4 96 - 5.1 11.1 0.00 0.00 48.2 58.9
Avg     50.1 47.7 92 - 2.4 5.0 0.00 - - -
Min     46.9 45.5 83 - 0.9 2.7 0.00 0.00 45.6 52.2

Lodi Central

Latest Observations

15 Minute Data | America/Los_Angeles
as of 11/19/19 6:55 AM PST
Station Date Time Temp (°F) Dew Pt (°F) RH (%) Wind Dir (°) Wind Spd (mph) Wind Gust (mph) Latest Rain (In) Daily Rain (In) Daily Min Temp (°F) Daily Max Temp (°F)
Galt West (GAW) 11/19/19 0645 49.2   9.5 46.2   8.9 89   2 SE | 145 3.7   3.3 6.5   4.8 0.00 0.00 47.2   8.2 51.7   1.2
Valley Oak 11/19/19 0645 47.6   8.9 45.1   7.6 91   4 SE | 128 2.0   1.3 5.9   4.6 0.00 0.00 44.6   6.3 50.2   6.8
Thornton 11/19/19 0645 48.1   9.8 44.0   10.2 85   2 SE | 139 3.9   3.9 7.1   7.1 0.00 0.00 45.4   7.5 51.4   0.6
Kost Rd 11/19/19 0645 50.2   9.8 47.6   7.9 91   6 SE | 143 4.4   4.4 6.3   6.3 0.00 0.00 47.5   8.2 52.1   0.8
DeVries Road-North 11/19/19 0645 48.2   8.1 45.5   6.9 90   4 ESE | 112 2.4   1.8 4.3   2.7 0.00 0.00 46.3   6.9 51.7   0.3
Lodi (LangeTwins) 11/19/19 0645 46.1   6.1 44.8   5.7 95   1 ESE | 115 1.1   1.1 3.4   3.4 0.00 0.00 45.6   6.7 49.5   2.8
Acampo (ACP) 11/19/19 0645 48.6   10.6 45.1   9.6 87   3 SE | 126 2.1   2.0 4.1   2.3 0.00 0.00 45.7   7.9 50.2   2.5
Lodi West (MDW) 11/19/19 0645 48.0   5.8 45.6   4.4 91   5 SSE | 151 1.9   1.1 5.3   3.1 0.00 0.00 47.2   5.3 52.0   0.7
Max     50.2 47.6 95 - 4.4 7.1 0.00 0.00 47.5 52.1
Avg     48.3 45.5 90 - 2.7 5.4 0.00 - - -
Min     46.1 44.0 85 - 1.1 3.4 0.00 0.00 44.6 49.5

Latest Observation

19 Stations

15 Minute Data
as of 11/19/19 6:55 AM PST
Station Date Time Temp (°F) Dew Pt (°F) RH (%) Wind Spd (mph) Wind Dir (°) Wind Gust (mph) Latest Rain (In) Daily Rain (In) Daily Min Temp (°F) Daily Max Temp (°F)
Borden Hills 11/19/19 0645 50.3   5.9 46.7   4.5 87   5 3.2   0.4 SSE | 158 4.9   0.4 0.00 0.00 46.3   2.9 52.0   0.1
Collegeville (COL) 11/19/19 0645 45.5   5.8 42.0   3.5 87   8 2.2   1.9 ESE | 110 3.5   2.4 0.00 0.00 44.5   5.3 49.7   0.1
Galt-East (EGT) 11/19/19 0645 49.4   7.1 45.5   5.5 86   5 2.2   1.8 SE | 133 4.2   2.2 0.00 0.00 45.9   4.9 51.5   1.8
Escalon (ESL) 11/19/19 0645 45.6   5.2 44.7   4.3 97   3 0.5   0.5 N | 356 1.5   1.5 0.00 0.00 44.7   4.3 48.5   0.1
Victor - N (Katusha) 11/19/19 0645 49.0   7.7 44.2   3.1 83   16 2.3   2.3 SSE | 159 4.1   4.1 0.00 0.00 44.9   4.4 49.3   0.2
Gilbeau Ranch 11/19/19 0645 49.9   10.5 46.0   8.4 86   7 2.2   1.5 SSE | 148 4.6   3.1 0.00 0.00 46.4   7.6 51.1   4.2
Lodi 9/1/19 2315 68.3   2.1 54.6   2.0 61   8 0.0   0.0 N | 0 0.0   0.6 0.00 0.00 54.3   2.9 96.9   0.2
Linden (LIN) 11/19/19 0645 47.6   10.7 44.9   8.1 90   9 1.9   1.9 SE | 146 3.8   3.8 0.00 0.00 42.9   6.4 50.0   1.1
Live Oak (LIV) 11/19/19 0645 47.0   8.3 44.9   7.6 92   2 1.8   1.7 SE | 146 4.5   3.2 0.00 0.00 44.9   6.3 47.5   2.7
Lockeford (LOC) 11/19/19 0645 50.2   8.7 - 0   0 1.4   1.4 SE | 132 4.6   4.6 0.00 0.00 45.3   4.7 51.4   3.9
Lone Oak-L28 11/19/19 0645 44.6   5.5 43.5   5.0 96   2 3.1   2.5 SE | 132 5.3   4.0 0.00 0.00 41.2   2.6 50.2   1.2
Sheldon (SHL) 11/19/19 0645 48.6   11.0 44.8   10.4 87   2 3.0   2.9 ESE | 117 5.8   4.0 0.00 0.00 45.7   8.1 49.6   6.3
Sierra Loma-L27 11/19/19 0645 48.1   1.4 44.8   1.6 88   1 2.5   1.0 NE | 40 3.9   0.8 0.00 0.00 45.7   1.7 51.3   0.3
Simmerhorn (SIM) 11/19/19 0645 48.4   3.4 44.0   2.2 84   4 - - - - - 44.8   3.9 49.8   0.3
Sloughhouse (SLH) 11/19/19 0600 45.6   6.9 - - 0.0   0.0 N | 0 0.0   0.0 0.00 0.00 - -
5 Wells 11/19/19 0645 50.3   9.6 46.4   7.0 86   9 3.5   2.1 SE | 141 5.3   3.1 0.00 0.00 45.4   5.5 50.6   4.2
Max     50.3 46.7 97 3.5 - 5.8 0.00 0.00 46.4 52.0
Avg     48.0 44.8 82 2.1 - 4.0 0.00 - - -
Min     44.6 42.0 0 0.0 - 0.0 0.00 0.00 41.2 47.5